Lillie, Louisiana
Current Conditions -  °F | °C
As of 3:53 PM on Tuesday 21 Oct 2014 (Local Time) from KELD Reporting Station
Few Clouds Few Clouds  
Wind Chill: 80°   Ceiling: Unl
Heat Index: 81°   Visibility: 10mi
Dew Point: 59°   Wind: 7mph
Humidity: 48%   Direction: 20°NNE
Pressure: 30.04"   Gusts: NA
Location:  32.93°N, 92.66°W
Report Text: KELD 212053Z AUTO 02006KT 10SM FEW041 27/15 A3004 RMK AO2 SLP169 T02670150 56019
Loading
Personal Weather Stations






























Interactive Weather Map
Tropical Storm Tracking
New forecast layout! Learn more

10-Day Weather Forecast

Advertisements
Track Severe Weather on mobile